Latest Weather Observations for Fowlers Gap

IDN60801

Issued at 11:33 am EST Sunday 31 July 2016 (issued every 30 minutes, with the page automatically refreshed every 10 minutes)

About weather observations | Map of weather stations | Latest weather observations for NSW | Other Formats
Station Details ID: 046128 Name: FOWLERS GAP AWS Lat: -31.09 Lon: 141.70 Height: 181.0 m
Data from the previous 72 hours. | See also: Recent months at Fowlers Gap
Date/Time
EST
Temp
°C
App
Temp
°C
Dew
Point
°C
Rel
Hum
%
Delta-T
°C
Wind Press
QNH
hPa
Press
MSL
hPa
Rain since
9am
mm
Dir  Spd
km/h
Gust
km/h
Spd
kts
Gust
kts
31/11:30am 17.8 12.1 2.9 37 6.9 NW 22 28 12 15 1019.7 1019.9 0.0
31/11:00am 17.1 11.7 4.4 43 6.0 NW 22 30 12 16 1019.8 1020.0 0.0
31/10:30am 16.2 12.0 3.9 44 5.8 NNW 15 19 8 10 1020.3 1020.5 0.0
31/10:00am 15.2 11.5 4.3 48 5.1 NNW 13 15 7 8 1020.0 1020.2 0.0
31/09:30am 14.1 10.7 4.1 51 4.6 NNW 11 17 6 9 1020.1 1020.3 0.0
31/09:00am 11.6 9.8 5.5 66 2.8 SSW 4 9 2 5 1019.7 1019.9 0.0
31/08:30am 9.2 6.3 4.4 72 2.1 ENE 9 11 5 6 1019.2 1019.4 0.0
31/08:00am 6.4 4.0 4.1 85 1.0 ENE 6 7 3 4 1019.2 1019.4 0.0
31/07:30am 5.2 3.7 2.9 85 1.0 CALM 0 0 0 0 1019.1 1019.3 0.0
31/07:00am 7.0 4.2 3.4 78 1.5 WNW 7 9 4 5 1018.8 1019.0 0.0
31/06:30am 6.0 3.5 3.5 84 1.1 SSE 6 7 3 4 1018.6 1018.8 0.0
31/06:00am 6.9 5.6 4.2 83 1.2 CALM 0 2 0 1 1018.1 1018.3 0.0
31/05:30am 7.0 3.9 3.6 79 1.5 E 9 11 5 6 1017.9 1018.1 0.0
31/05:00am 7.2 5.1 3.8 79 1.5 NNE 4 7 2 4 1017.8 1018.0 0.0
31/04:30am 7.7 6.1 4.3 79 1.5 ESE 2 7 1 4 1017.8 1018.0 0.0
31/04:00am 9.1 6.5 4.3 72 2.1 N 7 9 4 5 1017.7 1017.9 0.0
31/03:30am 9.6 7.3 4.6 71 2.3 S 6 7 3 4 1018.1 1018.3 0.0
31/03:00am 10.4 7.9 4.5 67 2.7 E 7 11 4 6 1018.0 1018.2 0.0
31/02:30am 10.5 7.6 4.6 67 2.7 NE 9 13 5 7 1017.8 1018.0 0.0
31/02:00am 10.7 9.1 4.4 65 2.8 NNW 2 6 1 3 1018.6 1018.8 0.0
31/01:30am 11.7 8.7 4.2 60 3.4 NW 9 13 5 7 1018.9 1019.1 0.0
31/01:00am 12.5 8.3 4.0 56 3.9 NNW 15 20 8 11 1019.1 1019.3 0.0
31/12:30am 9.3 6.4 4.5 72 2.1 N 9 11 5 6 1019.3 1019.5 0.0
31/12:00am 9.2 6.6 4.0 70 2.3 NNW 7 9 4 5 1019.6 1019.8 0.0
 
Date/Time
EST
Temp
°C
App
Temp
°C
Dew
Point
°C
Rel
Hum
%
Delta-T
°C
Wind Press
QNH
hPa
Press
MSL
hPa
Rain since
9am
mm
Dir  Spd
km/h
Gust
km/h
Spd
kts
Gust
kts
30/11:30pm 10.9 8.3 4.4 64 2.9 NW 7 9 4 5 1019.8 1020.0 0.0
30/11:00pm 12.1 10.8 4.3 59 3.6 CALM 0 0 0 0 1019.9 1020.1 0.0
30/10:30pm 13.3 9.9 4.2 54 4.2 NNW 11 15 6 8 1019.9 1020.1 0.0
30/10:00pm 13.4 9.8 4.8 56 4.0 N 13 17 7 9 1019.8 1020.0 0.0
30/09:30pm 13.5 9.8 4.4 54 4.2 NNW 13 17 7 9 1019.9 1020.1 0.0
30/09:00pm 12.9 10.0 4.8 58 3.8 N 9 11 5 6 1019.7 1019.9 0.0
30/08:30pm 13.6 10.8 5.0 56 4.0 NNW 9 13 5 7 1019.7 1019.9 0.0
30/08:00pm 12.7 10.0 5.4 61 3.4 N 9 11 5 6 1019.2 1019.4 0.0
30/07:30pm 13.8 11.4 5.2 56 4.1 N 7 9 4 5 1019.3 1019.5 0.0
30/07:00pm 14.4 11.2 5.0 53 4.4 NNE 11 13 6 7 1019.1 1019.3 0.0
30/06:30pm 14.7 11.9 5.2 53 4.5 NNE 9 11 5 6 1018.9 1019.1 0.0
30/06:00pm 15.9 13.4 4.6 47 5.3 N 7 11 4 6 1019.0 1019.2 0.0
30/05:30pm 17.0 13.6 4.0 42 6.1 N 11 13 6 7 1018.8 1019.0 0.0
30/05:00pm 17.4 13.6 3.7 40 6.4 NNW 13 19 7 10 1019.0 1019.2 0.0
30/04:30pm 18.1 13.9 3.9 39 6.7 NNW 15 20 8 11 1019.1 1019.3 0.0
30/04:00pm 18.7 14.7 4.8 40 6.7 NNW 15 22 8 12 1019.2 1019.4 0.0
30/03:30pm 18.4 14.1 3.5 37 7.0 NNW 15 20 8 11 1019.4 1019.6 0.0
30/03:00pm 18.0 13.7 3.1 37 6.9 NNW 15 20 8 11 1019.6 1019.8 0.0
30/02:30pm 17.7 13.3 4.6 42 6.3 NNW 17 24 9 13 1019.9 1020.1 0.0
30/02:00pm 17.0 13.0 4.7 44 5.9 N 15 24 8 13 1020.3 1020.5 0.0
30/01:30pm 16.8 12.8 4.8 45 5.7 N 15 24 8 13 1020.9 1021.0 0.0
30/01:00pm 16.6 12.7 5.3 47 5.4 N 15 22 8 12 1021.6 1021.8 0.0
30/12:30pm 16.1 12.1 5.1 48 5.3 N 15 20 8 11 1022.3 1022.5 0.0
30/12:00pm 15.7 11.5 5.6 51 4.9 N 17 22 9 12 1022.8 1023.0 0.0
30/11:30am 15.6 11.4 5.5 51 4.9 NNW 17 22 9 12 1023.4 1023.6 0.0
30/11:00am 14.4 10.5 5.5 55 4.2 N 15 20 8 11 1023.6 1023.8 0.0
30/10:30am 13.5 10.0 5.4 58 3.8 N 13 20 7 11 1023.7 1023.9 0.0
30/10:00am 12.7 10.4 5.8 63 3.3 NNE 7 11 4 6 1023.7 1023.9 0.0
30/09:30am 8.7 7.4 6.2 84 1.2 NW 2 7 1 4 1023.8 1024.0 0.0
30/09:00am 6.5 5.4 5.0 90 0.7 CALM 0 0 0 0 1023.8 1024.0 0.0
30/08:30am 4.6 3.2 3.4 92 0.5 CALM 0 0 0 0 1023.8 1024.0 0.0
30/08:00am 3.9 2.4 2.9 93 0.4 CALM 0 0 0 0 1023.5 1023.7 0.0
30/07:30am 2.7 1.0 2.0 95 0.3 CALM 0 0 0 0 1023.3 1023.5 0.0
30/07:00am 2.3 0.5 1.4 94 0.3 CALM 0 0 0 0 1022.9 1023.1 0.0
30/06:30am 2.5 0.8 1.8 95 0.3 CALM 0 0 0 0 1022.8 1023.0 0.0
30/06:00am 2.7 1.0 1.8 94 0.4 CALM 0 0 0 0 1022.7 1022.9 0.0
30/05:30am 2.8 1.1 1.9 94 0.4 CALM 0 0 0 0 1022.6 1022.8 0.0
30/05:00am 3.2 1.2 2.3 94 0.4 WSW 2 7 1 4 1022.6 1022.8 0.0
30/04:30am 3.4 1.8 2.4 93 0.4 CALM 0 0 0 0 1022.8 1023.0 0.0
30/04:00am 3.7 2.1 2.7 93 0.4 CALM 0 0 0 0 1023.0 1023.2 0.0
30/03:30am 4.2 1.6 3.2 93 0.4 NW 6 7 3 4 1023.0 1023.2 0.0
30/03:00am 4.3 2.8 3.1 92 0.5 CALM 0 0 0 0 1023.1 1023.3 0.0
30/02:30am 4.5 1.9 3.2 91 0.5 WSW 6 7 3 4 1023.4 1023.6 0.0
30/02:00am 5.0 3.6 3.3 89 0.7 CALM 0 0 0 0 1023.5 1023.7 0.0
30/01:30am 5.3 2.8 3.6 89 0.7 NW 6 7 3 4 1023.6 1023.8 0.0
30/01:00am 5.4 4.0 3.7 89 0.7 CALM 0 0 0 0 1023.6 1023.8 0.0
30/12:30am 6.0 3.4 4.2 88 0.8 WNW 7 9 4 5 1024.1 1024.3 0.0
30/12:00am 6.1 4.1 4.3 88 0.8 NW 4 7 2 4 1024.2 1024.4 0.0
 
Date/Time
EST
Temp
°C
App
Temp
°C
Dew
Point
°C
Rel
Hum
%
Delta-T
°C
Wind Press
QNH
hPa
Press
MSL
hPa
Rain since
9am
mm
Dir  Spd
km/h
Gust
km/h
Spd
kts
Gust
kts
29/11:30pm 6.1 4.8 4.1 87 0.9 CALM 0 0 0 0 1024.4 1024.6 0.0
29/11:00pm 7.0 5.8 4.8 86 1.0 CALM 0 0 0 0 1024.5 1024.7 0.0
29/10:30pm 7.3 5.0 4.8 84 1.1 WNW 6 9 3 5 1024.5 1024.7 0.0
29/10:00pm 7.7 6.6 5.0 83 1.2 CALM 0 0 0 0 1024.4 1024.6 0.0
29/09:30pm 8.2 7.1 5.0 80 1.4 CALM 0 0 0 0 1024.5 1024.7 0.0
29/09:00pm 9.2 8.2 5.4 77 1.7 CALM 0 0 0 0 1024.3 1024.5 0.0
29/08:30pm 9.8 8.8 5.6 75 1.9 CALM 0 0 0 0 1024.2 1024.4 0.0
29/08:00pm 10.5 8.2 5.7 72 2.2 W 7 9 4 5 1023.9 1024.1 0.0
29/07:30pm 10.9 9.9 5.7 70 2.4 CALM 0 0 0 0 1023.7 1023.9 0.0
29/07:00pm 11.7 10.4 5.8 67 2.8 WNW 2 7 1 4 1023.6 1023.8 0.0
29/06:30pm 13.1 10.7 5.3 59 3.7 WNW 7 9 4 5 1023.3 1023.5 0.0
29/06:00pm 14.1 11.4 5.7 57 4.0 WSW 9 11 5 6 1023.3 1023.5 0.0
29/05:30pm 16.4 14.3 5.7 49 5.2 WSW 6 9 3 5 1023.0 1023.2 0.0
29/05:00pm 16.7 14.1 4.1 43 5.9 SSW 7 11 4 6 1023.1 1023.3 0.0
29/04:30pm 17.0 13.3 4.3 43 6.0 SW 13 20 7 11 1023.4 1023.6 0.0
29/04:00pm 17.4 14.2 5.0 44 6.0 WSW 11 17 6 9 1023.4 1023.6 0.0
29/03:30pm 17.5 15.1 4.1 41 6.4 SW 6 13 3 7 1023.5 1023.7 0.0
29/03:00pm 17.4 14.9 4.7 43 6.1 NW 7 11 4 6 1023.6 1023.8 0.0
29/02:30pm 16.6 14.1 4.9 46 5.6 SSW 7 11 4 6 1023.8 1024.0 0.0
29/02:00pm 16.3 13.0 4.7 46 5.5 SW 11 15 6 8 1024.4 1024.6 0.0
29/01:30pm 15.6 12.6 4.3 47 5.3 WNW 9 15 5 8 1024.7 1024.9 0.0
29/01:00pm 15.3 12.7 4.4 48 5.1 WNW 7 15 4 8 1025.2 1025.4 0.0
29/12:30pm 15.2 12.3 4.9 50 4.9 WNW 9 15 5 8 1025.6 1025.8 0.0
29/12:00pm 15.2 13.0 5.1 51 4.8 WNW 6 11 3 6 1026.1 1026.4 0.0
29/11:30am 14.5 12.2 4.8 52 4.6 NW 6 7 3 4 1026.4 1026.7 0.0
29/11:00am 14.1 11.8 4.9 54 4.3 N 6 9 3 5 1026.9 1027.1 0.0
29/10:30am 12.3 10.4 6.8 69 2.7 W 6 7 3 4 1027.4 1027.6 0.0
29/10:00am 10.0 8.6 5.4 73 2.1 W 2 7 1 4 1027.6 1027.8 0.0
29/09:30am 8.2 7.0 4.8 79 1.5 CALM 0 0 0 0 1027.7 1027.9 0.0
29/09:00am 6.2 4.8 3.7 84 1.1 CALM 0 0 0 0 1027.6 1027.8 0.0
29/08:30am 3.7 2.1 2.2 90 0.6 CALM 0 0 0 0 1027.6 1027.8 0.0
29/08:00am 2.7 -0.1 2.0 95 0.3 WSW 6 9 3 5 1027.4 1027.6 0.0
29/07:30am 1.4 -0.5 0.7 95 0.3 CALM 0 0 0 0 1027.1 1027.3 0.0
29/07:00am 1.6 -0.2 1.0 96 0.2 CALM 0 0 0 0 1026.9 1027.1 0.0
29/06:30am 1.7 -0.1 1.0 95 0.3 CALM 0 0 0 0 1026.7 1026.9 0.0
29/06:00am 1.7 -0.2 0.8 94 0.3 CALM 0 0 0 0 1026.5 1026.8 0.0
29/05:30am 2.1 0.3 1.4 95 0.3 CALM 0 0 0 0 1026.2 1026.5 0.0
29/05:00am 2.5 0.8 1.6 94 0.3 CALM 0 0 0 0 1026.2 1026.5 0.0
29/04:30am 2.9 0.5 2.2 95 0.3 WSW 4 7 2 4 1026.1 1026.4 0.0
29/04:00am 3.1 1.5 2.4 95 0.3 CALM 0 0 0 0 1026.1 1026.4 0.0
29/03:30am 2.9 -0.1 2.0 94 0.4 SW 7 9 4 5 1026.2 1026.5 0.0
29/03:00am 3.4 1.1 2.5 94 0.4 WNW 4 6 2 3 1026.2 1026.5 0.0
29/02:30am 3.8 2.3 2.8 93 0.4 CALM 0 0 0 0 1026.4 1026.7 0.0
29/02:00am 3.8 2.3 2.8 93 0.4 CALM 0 0 0 0 1026.7 1026.9 0.0
29/01:30am 4.2 2.7 3.2 93 0.4 CALM 0 0 0 0 1026.8 1027.0 0.0
29/01:00am 4.6 3.2 3.4 92 0.5 CALM 0 0 0 0 1027.1 1027.3 0.0
29/12:30am 4.8 3.4 3.3 90 0.6 CALM 0 0 0 0 1027.2 1027.4 0.0
29/12:00am 5.2 3.1 3.7 90 0.6 WNW 4 7 2 4 1027.2 1027.4 0.0
 
Date/Time
EST
Temp
°C
App
Temp
°C
Dew
Point
°C
Rel
Hum
%
Delta-T
°C
Wind Press
QNH
hPa
Press
MSL
hPa
Rain since
9am
mm
Dir  Spd
km/h
Gust
km/h
Spd
kts
Gust
kts
28/11:30pm 5.8 4.5 4.1 89 0.7 CALM 0 0 0 0 1027.5 1027.7 0.0
28/11:00pm 6.3 5.1 4.5 88 0.8 CALM 0 0 0 0 1027.6 1027.8 0.0
28/10:30pm 6.6 4.2 4.3 85 1.0 WSW 6 9 3 5 1027.9 1028.1 0.0
28/10:00pm 7.2 6.1 4.9 85 1.0 CALM 0 0 0 0 1027.8 1028.0 0.0
28/09:30pm 7.3 6.1 4.8 84 1.1 CALM 0 0 0 0 1027.7 1027.9 0.0
28/09:00pm 7.8 5.6 5.3 84 1.1 WNW 6 7 3 4 1027.7 1027.9 0.0
28/08:30pm 8.3 7.2 5.2 81 1.4 CALM 0 0 0 0 1027.8 1028.0 0.0
28/08:00pm 9.2 8.2 5.8 79 1.6 CALM 0 0 0 0 1027.8 1028.0 0.0
28/07:30pm 9.8 8.8 5.6 75 1.9 CALM 0 0 0 0 1027.6 1027.8 0.0
28/07:00pm 11.0 8.8 6.0 71 2.3 W 7 7 4 4 1027.5 1027.7 0.0
28/06:30pm 11.8 10.8 5.4 65 3.0 CALM 0 0 0 0 1027.1 1027.3 0.0
28/06:00pm 13.6 12.6 5.5 58 3.8 CALM 0 0 0 0 1026.9 1027.1 0.0
28/05:30pm 15.2 12.9 4.9 50 4.9 WSW 6 9 3 5 1026.7 1026.9 0.0
28/05:00pm 15.6 13.1 4.6 48 5.2 WNW 7 11 4 6 1026.7 1026.9 0.0
28/04:30pm 15.7 12.8 4.7 48 5.2 W 9 13 5 7 1026.8 1027.0 0.0
28/04:00pm 15.2 12.6 4.0 47 5.2 S 7 11 4 6 1026.9 1027.1 0.0
28/03:30pm 15.5 13.2 4.6 48 5.1 WSW 6 11 3 6 1027.0 1027.2 0.0
28/03:00pm 15.4 12.9 4.5 48 5.1 NW 7 11 4 6 1027.2 1027.4 0.0
28/02:30pm 14.9 12.4 4.6 50 4.8 WNW 7 13 4 7 1027.6 1027.8 0.0
28/02:00pm 14.5 11.5 3.9 49 4.9 ENE 9 11 5 6 1028.0 1028.2 0.0
28/01:30pm 14.4 12.0 4.4 51 4.7 SSW 6 11 3 6 1028.7 1028.9 0.0
28/01:00pm 14.7 12.5 5.5 54 4.4 ENE 6 11 3 6 1029.0 1029.2 0.0
28/12:30pm 13.7 11.5 5.1 56 4.0 E 6 11 3 6 1029.7 1029.9 0.0
28/12:00pm 14.0 11.6 5.1 55 4.2 NE 7 11 4 6 1030.2 1030.4 0.0

Other Formats:

Comma delimited format used in spreadsheet applications
http://www.bom.gov.au/fwo/IDN60801/IDN60801.94686.axf

JavaScript Object Notation format (JSON) in row-major order
http://www.bom.gov.au/fwo/IDN60801/IDN60801.94686.json